sensor_id;sensor_type;location;lat;lon;timestamp;P1;durP1;ratioP1;P2;durP2;ratioP2
57047;SDS011;42934;54.294;18.598;2023-07-22T12:48:18;3.92;;;1.70;;
57047;SDS011;42934;54.294;18.598;2023-07-22T12:50:49;2.95;;;1.50;;
57047;SDS011;42934;54.294;18.598;2023-07-22T12:53:19;6.05;;;1.90;;
57047;SDS011;42934;54.294;18.598;2023-07-22T12:55:50;2.30;;;1.60;;
57047;SDS011;42934;54.294;18.598;2023-07-22T12:58:21;9.00;;;2.25;;
57047;SDS011;42934;54.294;18.598;2023-07-22T13:00:51;15.77;;;2.72;;
57047;SDS011;42934;54.294;18.598;2023-07-22T13:03:22;1.70;;;1.48;;
57047;SDS011;42934;54.294;18.598;2023-07-22T13:05:51;1.92;;;1.48;;
57047;SDS011;42934;54.294;18.598;2023-07-22T13:08:21;1.63;;;1.50;;
57047;SDS011;42934;54.294;18.598;2023-07-22T13:10:51;2.55;;;1.20;;
57047;SDS011;42934;54.294;18.598;2023-07-22T13:13:20;2.47;;;1.17;;
57047;SDS011;42934;54.294;18.598;2023-07-22T13:15:49;1.58;;;1.20;;
57047;SDS011;42934;54.294;18.598;2023-07-22T13:18:21;3.17;;;1.40;;
57047;SDS011;42934;54.294;18.598;2023-07-22T13:20:51;1.42;;;1.30;;
57047;SDS011;42934;54.294;18.598;2023-07-22T13:23:20;1.63;;;1.30;;
57047;SDS011;42934;54.294;18.598;2023-07-22T13:25:52;1.90;;;1.20;;
57047;SDS011;42934;54.294;18.598;2023-07-22T13:28:24;1.77;;;1.40;;
57047;SDS011;42934;54.294;18.598;2023-07-22T13:30:55;2.70;;;1.30;;
57047;SDS011;42934;54.294;18.598;2023-07-22T13:33:26;3.70;;;1.50;;
57047;SDS011;42934;54.294;18.598;2023-07-22T13:35:56;2.05;;;1.40;;
57047;SDS011;42934;54.294;18.598;2023-07-22T13:38:25;2.72;;;1.50;;
57047;SDS011;42934;54.294;18.598;2023-07-22T13:40:55;4.57;;;1.42;;
57047;SDS011;42934;54.294;18.598;2023-07-22T13:43:24;2.00;;;1.52;;
57047;SDS011;42934;54.294;18.598;2023-07-22T13:45:55;1.90;;;1.20;;
57047;SDS011;42934;54.294;18.598;2023-07-22T13:48:26;3.95;;;2.00;;
57047;SDS011;42934;54.294;18.598;2023-07-22T13:50:56;2.80;;;1.63;;
57047;SDS011;42934;54.294;18.598;2023-07-22T13:53:25;1.90;;;1.60;;
57047;SDS011;42934;54.294;18.598;2023-07-22T13:55:55;2.45;;;1.80;;
57047;SDS011;42934;54.294;18.598;2023-07-22T13:58:24;3.33;;;1.77;;
57047;SDS011;42934;54.294;18.598;2023-07-22T14:00:54;3.15;;;1.42;;
57047;SDS011;42934;54.294;18.598;2023-07-22T14:03:27;1.60;;;1.38;;
57047;SDS011;42934;54.294;18.598;2023-07-22T14:05:57;2.53;;;1.60;;
57047;SDS011;42934;54.294;18.598;2023-07-22T14:08:27;1.67;;;1.38;;
57047;SDS011;42934;54.294;18.598;2023-07-22T14:10:57;6.75;;;1.63;;
57047;SDS011;42934;54.294;18.598;2023-07-22T14:13:26;1.85;;;1.63;;
57047;SDS011;42934;54.294;18.598;2023-07-22T14:15:56;3.30;;;1.77;;
57047;SDS011;42934;54.294;18.598;2023-07-22T14:18:47;2.88;;;1.10;;
57047;SDS011;42934;54.294;18.598;2023-07-22T14:21:17;1.60;;;1.20;;
57047;SDS011;42934;54.294;18.598;2023-07-22T14:23:46;3.00;;;1.10;;
57047;SDS011;42934;54.294;18.598;2023-07-22T14:28:49;3.35;;;1.10;;
57047;SDS011;42934;54.294;18.598;2023-07-22T14:33:50;3.60;;;1.40;;
57047;SDS011;42934;54.294;18.598;2023-07-22T14:36:20;2.95;;;1.23;;
57047;SDS011;42934;54.294;18.598;2023-07-22T14:38:51;2.47;;;1.20;;
57047;SDS011;42934;54.294;18.598;2023-07-22T14:41:24;1.42;;;1.27;;
57047;SDS011;42934;54.294;18.598;2023-07-22T14:43:58;1.40;;;0.95;;
57047;SDS011;42934;54.294;18.598;2023-07-22T14:46:39;2.13;;;1.30;;
57047;SDS011;42934;54.294;18.598;2023-07-22T14:49:12;1.63;;;1.15;;
57047;SDS011;42934;54.294;18.598;2023-07-22T14:51:42;2.83;;;1.42;;
57047;SDS011;42934;54.294;18.598;2023-07-22T14:54:19;2.40;;;1.30;;
57047;SDS011;42934;54.294;18.598;2023-07-22T14:56:51;3.38;;;1.40;;
57047;SDS011;42934;54.294;18.598;2023-07-22T14:59:23;2.60;;;1.60;;
57047;SDS011;42934;54.294;18.598;2023-07-22T15:01:59;3.10;;;1.75;;
57047;SDS011;42934;54.294;18.598;2023-07-22T15:04:31;1.95;;;1.55;;
57047;SDS011;42934;54.294;18.598;2023-07-22T15:07:02;2.53;;;1.40;;
57047;SDS011;42934;54.294;18.598;2023-07-22T15:09:33;4.22;;;1.50;;
57047;SDS011;42934;54.294;18.598;2023-07-22T15:12:05;2.28;;;1.40;;
57047;SDS011;42934;54.294;18.598;2023-07-22T15:14:39;2.42;;;1.40;;
57047;SDS011;42934;54.294;18.598;2023-07-22T15:17:10;2.60;;;1.42;;
57047;SDS011;42934;54.294;18.598;2023-07-22T15:19:44;2.47;;;1.67;;
57047;SDS011;42934;54.294;18.598;2023-07-22T15:22:15;4.07;;;1.80;;
57047;SDS011;42934;54.294;18.598;2023-07-22T15:24:44;1.80;;;1.60;;
57047;SDS011;42934;54.294;18.598;2023-07-22T15:27:17;2.53;;;1.65;;
57047;SDS011;42934;54.294;18.598;2023-07-22T15:32:17;5.03;;;2.03;;
57047;SDS011;42934;54.294;18.598;2023-07-22T15:34:50;2.33;;;1.42;;
57047;SDS011;42934;54.294;18.598;2023-07-22T15:37:21;1.90;;;1.42;;
57047;SDS011;42934;54.294;18.598;2023-07-22T15:39:53;2.03;;;1.35;;
57047;SDS011;42934;54.294;18.598;2023-07-22T15:42:48;2.40;;;1.73;;
57047;SDS011;42934;54.294;18.598;2023-07-22T15:45:20;1.92;;;1.42;;
57047;SDS011;42934;54.294;18.598;2023-07-22T15:47:51;2.28;;;1.35;;
57047;SDS011;42934;54.294;18.598;2023-07-22T15:50:23;2.13;;;1.17;;
57047;SDS011;42934;54.294;18.598;2023-07-22T15:52:59;2.58;;;1.30;;
57047;SDS011;42934;54.294;18.598;2023-07-22T15:55:33;3.55;;;1.10;;
57047;SDS011;42934;54.294;18.598;2023-07-22T15:58:06;1.40;;;1.30;;
57047;SDS011;42934;54.294;18.598;2023-07-22T16:00:40;2.45;;;1.30;;
57047;SDS011;42934;54.294;18.598;2023-07-22T16:03:13;1.98;;;1.25;;
57047;SDS011;42934;54.294;18.598;2023-07-22T16:05:44;1.58;;;1.20;;
57047;SDS011;42934;54.294;18.598;2023-07-22T16:08:18;2.58;;;1.60;;
57047;SDS011;42934;54.294;18.598;2023-07-22T16:10:50;2.95;;;1.20;;
57047;SDS011;42934;54.294;18.598;2023-07-22T16:13:23;2.95;;;1.40;;
57047;SDS011;42934;54.294;18.598;2023-07-22T16:15:54;2.17;;;1.42;;
57047;SDS011;42934;54.294;18.598;2023-07-22T16:18:25;3.45;;;1.40;;
57047;SDS011;42934;54.294;18.598;2023-07-22T16:20:57;2.08;;;1.40;;
57047;SDS011;42934;54.294;18.598;2023-07-22T16:23:30;5.78;;;1.40;;
57047;SDS011;42934;54.294;18.598;2023-07-22T16:26:07;1.50;;;1.20;;
57047;SDS011;42934;54.294;18.598;2023-07-22T16:28:37;3.65;;;1.27;;
57047;SDS011;42934;54.294;18.598;2023-07-22T16:31:08;2.33;;;1.23;;
57047;SDS011;42934;54.294;18.598;2023-07-22T16:33:42;1.20;;;0.90;;
57047;SDS011;42934;54.294;18.598;2023-07-22T16:36:18;2.45;;;1.30;;
57047;SDS011;42934;54.294;18.598;2023-07-22T16:38:49;2.60;;;1.20;;
57047;SDS011;42934;54.294;18.598;2023-07-22T16:41:22;2.30;;;1.02;;
57047;SDS011;42934;54.294;18.598;2023-07-22T16:43:55;2.90;;;1.17;;
57047;SDS011;42934;54.294;18.598;2023-07-22T16:46:25;1.30;;;1.20;;
57047;SDS011;42934;54.294;18.598;2023-07-22T16:48:55;4.00;;;1.20;;
57047;SDS011;42934;54.294;18.598;2023-07-22T16:51:25;2.35;;;1.20;;
57047;SDS011;42934;54.294;18.598;2023-07-22T16:53:57;3.67;;;1.10;;
57047;SDS011;42934;54.294;18.598;2023-07-22T16:56:26;1.30;;;1.20;;
57047;SDS011;42934;54.294;18.598;2023-07-22T16:58:56;2.10;;;1.25;;
57047;SDS011;42934;54.294;18.598;2023-07-22T17:01:25;1.88;;;1.08;;
57047;SDS011;42934;54.294;18.598;2023-07-22T17:03:55;2.08;;;1.20;;
57047;SDS011;42934;54.294;18.598;2023-07-22T17:06:26;2.80;;;1.25;;
57047;SDS011;42934;54.294;18.598;2023-07-22T17:08:57;2.30;;;1.63;;
57047;SDS011;42934;54.294;18.598;2023-07-22T17:11:26;3.57;;;1.87;;
57047;SDS011;42934;54.294;18.598;2023-07-22T17:16:26;1.85;;;1.10;;
57047;SDS011;42934;54.294;18.598;2023-07-22T17:18:58;10.30;;;1.52;;
57047;SDS011;42934;54.294;18.598;2023-07-22T17:21:29;1.70;;;1.10;;
57047;SDS011;42934;54.294;18.598;2023-07-22T17:24:00;1.50;;;1.17;;
57047;SDS011;42934;54.294;18.598;2023-07-22T17:26:29;2.47;;;1.40;;
57047;SDS011;42934;54.294;18.598;2023-07-22T17:28:59;1.98;;;1.48;;
57047;SDS011;42934;54.294;18.598;2023-07-22T17:31:29;3.15;;;1.50;;
57047;SDS011;42934;54.294;18.598;2023-07-22T17:33:59;4.22;;;1.50;;
57047;SDS011;42934;54.294;18.598;2023-07-22T17:36:29;1.37;;;1.10;;
57047;SDS011;42934;54.294;18.598;2023-07-22T17:38:59;2.30;;;1.27;;
57047;SDS011;42934;54.294;18.598;2023-07-22T17:41:28;1.33;;;1.23;;
57047;SDS011;42934;54.294;18.598;2023-07-22T17:46:27;3.07;;;1.80;;
57047;SDS011;42934;54.294;18.598;2023-07-22T17:53:58;2.63;;;1.40;;
57047;SDS011;42934;54.294;18.598;2023-07-22T17:56:31;2.10;;;1.30;;
57047;SDS011;42934;54.294;18.598;2023-07-22T17:59:03;1.88;;;1.30;;
57047;SDS011;42934;54.294;18.598;2023-07-22T18:01:32;2.10;;;1.40;;
57047;SDS011;42934;54.294;18.598;2023-07-22T18:04:02;1.70;;;1.50;;
57047;SDS011;42934;54.294;18.598;2023-07-22T18:06:33;1.67;;;1.48;;
57047;SDS011;42934;54.294;18.598;2023-07-22T18:09:02;2.15;;;1.50;;
57047;SDS011;42934;54.294;18.598;2023-07-22T18:11:32;1.70;;;1.35;;
57047;SDS011;42934;54.294;18.598;2023-07-22T18:14:02;2.38;;;1.40;;
57047;SDS011;42934;54.294;18.598;2023-07-22T18:16:31;1.90;;;1.37;;
57047;SDS011;42934;54.294;18.598;2023-07-22T18:19:00;2.22;;;1.40;;
57047;SDS011;42934;54.294;18.598;2023-07-22T18:21:30;2.85;;;1.40;;
57047;SDS011;42934;54.294;18.598;2023-07-22T18:24:01;1.77;;;1.50;;
57047;SDS011;42934;54.294;18.598;2023-07-22T18:26:30;1.67;;;1.30;;
57047;SDS011;42934;54.294;18.598;2023-07-22T18:29:00;2.05;;;1.63;;
57047;SDS011;42934;54.294;18.598;2023-07-22T18:31:30;2.78;;;1.42;;
57047;SDS011;42934;54.294;18.598;2023-07-22T18:34:00;2.00;;;1.75;;
57047;SDS011;42934;54.294;18.598;2023-07-22T18:36:29;3.13;;;1.67;;
57047;SDS011;42934;54.294;18.598;2023-07-22T18:39:00;2.05;;;1.38;;
57047;SDS011;42934;54.294;18.598;2023-07-22T18:41:30;2.90;;;1.58;;
57047;SDS011;42934;54.294;18.598;2023-07-22T18:44:00;2.33;;;1.67;;
57047;SDS011;42934;54.294;18.598;2023-07-22T18:46:29;2.27;;;1.73;;
57047;SDS011;42934;54.294;18.598;2023-07-22T18:48:58;3.67;;;1.58;;
57047;SDS011;42934;54.294;18.598;2023-07-22T18:51:28;2.13;;;1.80;;
57047;SDS011;42934;54.294;18.598;2023-07-22T18:54:00;1.83;;;1.27;;
57047;SDS011;42934;54.294;18.598;2023-07-22T18:56:30;1.65;;;1.10;;
57047;SDS011;42934;54.294;18.598;2023-07-22T18:58:59;3.13;;;1.38;;
57047;SDS011;42934;54.294;18.598;2023-07-22T19:01:28;2.13;;;1.27;;
57047;SDS011;42934;54.294;18.598;2023-07-22T19:03:58;2.45;;;1.15;;
57047;SDS011;42934;54.294;18.598;2023-07-22T19:06:27;1.30;;;0.90;;
57047;SDS011;42934;54.294;18.598;2023-07-22T19:08:57;3.22;;;0.95;;
57047;SDS011;42934;54.294;18.598;2023-07-22T19:11:27;1.13;;;0.87;;
57047;SDS011;42934;54.294;18.598;2023-07-22T19:13:57;1.85;;;1.10;;
57047;SDS011;42934;54.294;18.598;2023-07-22T19:16:26;2.30;;;1.00;;
57047;SDS011;42934;54.294;18.598;2023-07-22T19:18:56;2.30;;;1.35;;
57047;SDS011;42934;54.294;18.598;2023-07-22T19:21:25;1.20;;;0.93;;
57047;SDS011;42934;54.294;18.598;2023-07-22T19:23:56;1.25;;;0.93;;
57047;SDS011;42934;54.294;18.598;2023-07-22T19:26:25;2.30;;;1.23;;
57047;SDS011;42934;54.294;18.598;2023-07-22T19:28:56;1.17;;;1.02;;
57047;SDS011;42934;54.294;18.598;2023-07-22T19:31:25;1.85;;;1.10;;
57047;SDS011;42934;54.294;18.598;2023-07-22T19:36:24;1.77;;;1.10;;
57047;SDS011;42934;54.294;18.598;2023-07-22T19:38:53;1.30;;;1.20;;
57047;SDS011;42934;54.294;18.598;2023-07-22T19:41:23;1.60;;;1.03;;
57047;SDS011;42934;54.294;18.598;2023-07-22T19:43:54;2.50;;;0.98;;
57047;SDS011;42934;54.294;18.598;2023-07-22T19:46:23;1.50;;;1.00;;
57047;SDS011;42934;54.294;18.598;2023-07-22T19:48:53;2.40;;;1.00;;
57047;SDS011;42934;54.294;18.598;2023-07-22T19:51:22;2.30;;;1.30;;
57047;SDS011;42934;54.294;18.598;2023-07-22T19:53:52;2.03;;;1.40;;
57047;SDS011;42934;54.294;18.598;2023-07-22T19:56:21;2.70;;;1.30;;
57047;SDS011;42934;54.294;18.598;2023-07-22T19:58:51;2.47;;;1.10;;
57047;SDS011;42934;54.294;18.598;2023-07-22T20:01:21;2.23;;;1.10;;
57047;SDS011;42934;54.294;18.598;2023-07-22T20:03:51;1.73;;;1.02;;
57047;SDS011;42934;54.294;18.598;2023-07-22T20:06:21;3.63;;;1.35;;
57047;SDS011;42934;54.294;18.598;2023-07-22T20:08:50;2.83;;;1.40;;
57047;SDS011;42934;54.294;18.598;2023-07-22T20:11:19;2.50;;;1.70;;
57047;SDS011;42934;54.294;18.598;2023-07-22T20:13:49;2.92;;;1.60;;
57047;SDS011;42934;54.294;18.598;2023-07-22T20:16:18;2.03;;;1.50;;
57047;SDS011;42934;54.294;18.598;2023-07-22T20:18:49;3.30;;;1.48;;
57047;SDS011;42934;54.294;18.598;2023-07-22T20:21:18;2.38;;;1.40;;
57047;SDS011;42934;54.294;18.598;2023-07-22T20:23:48;2.88;;;1.50;;
57047;SDS011;42934;54.294;18.598;2023-07-22T20:26:17;3.50;;;1.58;;
57047;SDS011;42934;54.294;18.598;2023-07-22T20:28:47;2.65;;;1.80;;
57047;SDS011;42934;54.294;18.598;2023-07-22T20:31:16;2.40;;;1.80;;
57047;SDS011;42934;54.294;18.598;2023-07-22T20:33:46;2.92;;;1.77;;
57047;SDS011;42934;54.294;18.598;2023-07-22T20:36:16;4.83;;;1.80;;
57047;SDS011;42934;54.294;18.598;2023-07-22T20:38:46;2.55;;;1.75;;
57047;SDS011;42934;54.294;18.598;2023-07-22T20:41:15;3.37;;;1.60;;
57047;SDS011;42934;54.294;18.598;2023-07-22T20:43:45;4.55;;;1.63;;
57047;SDS011;42934;54.294;18.598;2023-07-22T20:46:14;3.20;;;1.57;;
57047;SDS011;42934;54.294;18.598;2023-07-22T20:48:44;2.58;;;1.92;;
57047;SDS011;42934;54.294;18.598;2023-07-22T20:51:13;3.13;;;1.90;;
57047;SDS011;42934;54.294;18.598;2023-07-22T20:53:47;4.97;;;2.22;;
57047;SDS011;42934;54.294;18.598;2023-07-22T20:56:16;6.68;;;2.47;;
57047;SDS011;42934;54.294;18.598;2023-07-22T20:58:46;6.15;;;2.75;;
57047;SDS011;42934;54.294;18.598;2023-07-22T21:01:15;5.22;;;2.83;;
57047;SDS011;42934;54.294;18.598;2023-07-22T21:03:45;7.85;;;2.60;;
57047;SDS011;42934;54.294;18.598;2023-07-22T21:06:15;4.70;;;2.70;;
57047;SDS011;42934;54.294;18.598;2023-07-22T21:08:44;4.28;;;3.03;;
57047;SDS011;42934;54.294;18.598;2023-07-22T21:11:15;5.20;;;2.90;;
57047;SDS011;42934;54.294;18.598;2023-07-22T21:13:44;4.15;;;2.83;;
57047;SDS011;42934;54.294;18.598;2023-07-22T21:16:13;5.80;;;2.70;;
57047;SDS011;42934;54.294;18.598;2023-07-22T21:18:43;5.07;;;2.63;;
57047;SDS011;42934;54.294;18.598;2023-07-22T21:21:13;5.50;;;3.10;;
57047;SDS011;42934;54.294;18.598;2023-07-22T21:23:43;5.65;;;2.88;;
57047;SDS011;42934;54.294;18.598;2023-07-22T21:26:12;5.15;;;2.80;;
57047;SDS011;42934;54.294;18.598;2023-07-22T21:28:43;5.68;;;2.70;;
57047;SDS011;42934;54.294;18.598;2023-07-22T21:31:12;5.93;;;2.80;;
57047;SDS011;42934;54.294;18.598;2023-07-22T21:33:44;3.83;;;2.72;;
57047;SDS011;42934;54.294;18.598;2023-07-22T21:36:14;4.65;;;2.60;;
57047;SDS011;42934;54.294;18.598;2023-07-22T21:41:14;4.20;;;3.00;;
57047;SDS011;42934;54.294;18.598;2023-07-22T21:43:44;5.80;;;3.20;;
57047;SDS011;42934;54.294;18.598;2023-07-22T21:46:13;4.97;;;3.03;;
57047;SDS011;42934;54.294;18.598;2023-07-22T21:48:43;4.68;;;3.13;;
57047;SDS011;42934;54.294;18.598;2023-07-22T21:51:12;4.30;;;3.05;;
57047;SDS011;42934;54.294;18.598;2023-07-22T21:53:42;5.65;;;3.42;;
57047;SDS011;42934;54.294;18.598;2023-07-22T21:56:11;4.15;;;2.92;;
57047;SDS011;42934;54.294;18.598;2023-07-22T21:58:42;4.47;;;3.30;;
57047;SDS011;42934;54.294;18.598;2023-07-22T22:01:11;5.22;;;3.30;;
57047;SDS011;42934;54.294;18.598;2023-07-22T22:03:40;6.93;;;2.90;;
57047;SDS011;42934;54.294;18.598;2023-07-22T22:06:10;5.10;;;3.20;;
57047;SDS011;42934;54.294;18.598;2023-07-22T22:08:39;5.88;;;3.22;;
57047;SDS011;42934;54.294;18.598;2023-07-22T22:11:08;5.20;;;3.10;;
57047;SDS011;42934;54.294;18.598;2023-07-22T22:13:38;7.15;;;3.20;;
57047;SDS011;42934;54.294;18.598;2023-07-22T22:16:08;7.27;;;3.40;;
57047;SDS011;42934;54.294;18.598;2023-07-22T22:18:38;4.75;;;3.28;;
57047;SDS011;42934;54.294;18.598;2023-07-22T22:21:07;5.60;;;3.07;;
57047;SDS011;42934;54.294;18.598;2023-07-22T22:23:37;4.75;;;3.25;;
57047;SDS011;42934;54.294;18.598;2023-07-22T22:26:06;4.20;;;3.13;;
57047;SDS011;42934;54.294;18.598;2023-07-22T22:28:36;5.47;;;3.03;;
57047;SDS011;42934;54.294;18.598;2023-07-22T22:31:05;4.72;;;2.85;;
57047;SDS011;42934;54.294;18.598;2023-07-22T22:33:36;3.63;;;2.70;;
57047;SDS011;42934;54.294;18.598;2023-07-22T22:36:05;4.07;;;2.88;;
57047;SDS011;42934;54.294;18.598;2023-07-22T22:38:34;5.47;;;3.10;;
57047;SDS011;42934;54.294;18.598;2023-07-22T22:41:03;4.97;;;3.00;;
57047;SDS011;42934;54.294;18.598;2023-07-22T22:43:33;5.10;;;2.80;;
57047;SDS011;42934;54.294;18.598;2023-07-22T22:46:02;4.10;;;2.77;;
57047;SDS011;42934;54.294;18.598;2023-07-22T22:48:32;4.43;;;3.13;;
57047;SDS011;42934;54.294;18.598;2023-07-22T22:51:02;4.90;;;3.55;;
57047;SDS011;42934;54.294;18.598;2023-07-22T22:53:33;4.20;;;3.03;;
57047;SDS011;42934;54.294;18.598;2023-07-22T22:56:03;6.68;;;3.00;;
57047;SDS011;42934;54.294;18.598;2023-07-22T23:01:01;4.25;;;2.70;;
57047;SDS011;42934;54.294;18.598;2023-07-22T23:03:38;5.43;;;2.72;;
57047;SDS011;42934;54.294;18.598;2023-07-22T23:06:13;5.37;;;3.00;;
57047;SDS011;42934;54.294;18.598;2023-07-22T23:08:43;5.82;;;3.20;;
57047;SDS011;42934;54.294;18.598;2023-07-22T23:11:14;3.78;;;2.63;;
57047;SDS011;42934;54.294;18.598;2023-07-22T23:13:45;6.70;;;3.22;;
57047;SDS011;42934;54.294;18.598;2023-07-22T23:16:16;4.65;;;2.50;;
57047;SDS011;42934;54.294;18.598;2023-07-22T23:18:47;5.30;;;2.88;;
57047;SDS011;42934;54.294;18.598;2023-07-22T23:23:47;5.22;;;2.60;;
57047;SDS011;42934;54.294;18.598;2023-07-22T23:26:16;7.97;;;2.83;;
57047;SDS011;42934;54.294;18.598;2023-07-22T23:28:46;6.05;;;2.45;;
57047;SDS011;42934;54.294;18.598;2023-07-22T23:31:15;4.68;;;2.25;;
57047;SDS011;42934;54.294;18.598;2023-07-22T23:33:44;3.13;;;2.30;;
57047;SDS011;42934;54.294;18.598;2023-07-22T23:36:13;3.90;;;2.13;;
57047;SDS011;42934;54.294;18.598;2023-07-22T23:38:44;3.75;;;2.05;;
57047;SDS011;42934;54.294;18.598;2023-07-22T23:41:13;3.25;;;2.03;;
57047;SDS011;42934;54.294;18.598;2023-07-22T23:43:43;3.22;;;2.00;;
57047;SDS011;42934;54.294;18.598;2023-07-22T23:46:12;3.13;;;2.05;;
57047;SDS011;42934;54.294;18.598;2023-07-22T23:48:42;2.90;;;2.20;;
57047;SDS011;42934;54.294;18.598;2023-07-22T23:51:11;2.95;;;2.20;;
57047;SDS011;42934;54.294;18.598;2023-07-22T23:53:40;3.72;;;1.80;;
57047;SDS011;42934;54.294;18.598;2023-07-22T23:56:11;2.72;;;1.92;;
57047;SDS011;42934;54.294;18.598;2023-07-22T23:58:40;3.00;;;1.90;;
